Terminal Aerodrome Forecast
Issued by NWS

Home | Current Version | Previous Version | Text Only | Print | Product List | Glossary On
Versions: 1 2 3 4 5 6 7 8 9 10 11 12 13 14
000
FTAK31 PAJN 301723
TAFAYA
TAF
PAYA 301723Z 3018/3118 05005KT P6SM OVC100 WS020/06030KT
     FM310300 05005KT P6SM BKN090
     FM310700 05003KT P6SM BKN090 WS020/05025KT
      AMD LTD TO CLD VIS AND WIND 3101/3109=

USA.gov is the U.S. government's official web portal to all federal, state and local government web resources and services.